sensor_id;sensor_type;location;lat;lon;timestamp;pressure;altitude;pressure_sealevel;temperature;humidity
77526;BME280;66627;29.424;-98.496;2023-04-24T00:01:00;98927.91;;;17.28;44.11
77526;BME280;66627;29.424;-98.496;2023-04-24T00:03:25;98930.63;;;17.01;44.76
77526;BME280;66627;29.424;-98.496;2023-04-24T00:05:50;98921.16;;;17.53;44.37
77526;BME280;66627;29.424;-98.496;2023-04-24T00:08:15;98926.56;;;17.50;43.05
77526;BME280;66627;29.424;-98.496;2023-04-24T00:10:40;98933.63;;;17.12;43.88
77526;BME280;66627;29.424;-98.496;2023-04-24T00:13:06;98932.25;;;17.18;43.55
77526;BME280;66627;29.424;-98.496;2023-04-24T00:15:30;98932.06;;;16.48;44.69
77526;BME280;66627;29.424;-98.496;2023-04-24T00:17:56;98936.95;;;16.87;44.43
77526;BME280;66627;29.424;-98.496;2023-04-24T00:20:21;98936.55;;;16.71;44.73
77526;BME280;66627;29.424;-98.496;2023-04-24T00:22:47;98939.92;;;16.40;44.26
77526;BME280;66627;29.424;-98.496;2023-04-24T00:25:12;98939.07;;;16.11;45.09
77526;BME280;66627;29.424;-98.496;2023-04-24T00:27:37;98940.39;;;16.53;45.16
77526;BME280;66627;29.424;-98.496;2023-04-24T00:30:03;98944.40;;;17.15;45.10
77526;BME280;66627;29.424;-98.496;2023-04-24T00:32:27;98949.53;;;16.39;44.83
77526;BME280;66627;29.424;-98.496;2023-04-24T00:34:53;98951.61;;;16.92;45.41
77526;BME280;66627;29.424;-98.496;2023-04-24T00:37:18;98953.36;;;16.77;44.41
77526;BME280;66627;29.424;-98.496;2023-04-24T00:39:44;98955.03;;;16.82;44.94
77526;BME280;66627;29.424;-98.496;2023-04-24T00:42:09;98960.81;;;16.70;44.68
77526;BME280;66627;29.424;-98.496;2023-04-24T00:44:35;98965.59;;;16.06;45.52
77526;BME280;66627;29.424;-98.496;2023-04-24T00:47:00;98968.00;;;16.63;45.59
77526;BME280;66627;29.424;-98.496;2023-04-24T00:49:25;98969.74;;;16.39;44.60
77526;BME280;66627;29.424;-98.496;2023-04-24T00:51:50;98978.37;;;16.50;44.94
77526;BME280;66627;29.424;-98.496;2023-04-24T00:54:16;98983.27;;;15.38;44.84
77526;BME280;66627;29.424;-98.496;2023-04-24T00:56:41;98987.06;;;15.41;45.84
77526;BME280;66627;29.424;-98.496;2023-04-24T00:59:06;98995.55;;;14.81;47.01
77526;BME280;66627;29.424;-98.496;2023-04-24T01:01:31;98994.16;;;14.82;48.12
77526;BME280;66627;29.424;-98.496;2023-04-24T01:03:58;98994.89;;;14.66;46.92
77526;BME280;66627;29.424;-98.496;2023-04-24T01:06:23;99000.64;;;15.06;47.38
77526;BME280;66627;29.424;-98.496;2023-04-24T01:08:48;99001.05;;;15.08;48.26
77526;BME280;66627;29.424;-98.496;2023-04-24T01:11:13;99004.27;;;14.81;47.59
77526;BME280;66627;29.424;-98.496;2023-04-24T01:13:39;99011.55;;;14.89;47.56
77526;BME280;66627;29.424;-98.496;2023-04-24T01:16:04;99010.33;;;14.63;47.39
77526;BME280;66627;29.424;-98.496;2023-04-24T01:18:30;99018.99;;;14.31;48.37
77526;BME280;66627;29.424;-98.496;2023-04-24T01:20:58;99024.63;;;15.21;47.65
77526;BME280;66627;29.424;-98.496;2023-04-24T01:23:21;99036.06;;;13.58;50.51
77526;BME280;66627;29.424;-98.496;2023-04-24T01:25:46;99035.13;;;15.13;47.98
77526;BME280;66627;29.424;-98.496;2023-04-24T01:28:11;99045.95;;;13.66;48.98
77526;BME280;66627;29.424;-98.496;2023-04-24T01:30:37;99045.94;;;14.32;48.03
77526;BME280;66627;29.424;-98.496;2023-04-24T01:33:03;99053.01;;;13.93;49.10
77526;BME280;66627;29.424;-98.496;2023-04-24T01:35:28;99056.70;;;13.54;48.84
77526;BME280;66627;29.424;-98.496;2023-04-24T01:37:53;99065.23;;;13.86;48.93
77526;BME280;66627;29.424;-98.496;2023-04-24T01:40:19;99068.59;;;14.07;49.27
77526;BME280;66627;29.424;-98.496;2023-04-24T01:42:45;99071.67;;;14.12;49.07
77526;BME280;66627;29.424;-98.496;2023-04-24T01:45:11;99075.16;;;13.32;49.72
77526;BME280;66627;29.424;-98.496;2023-04-24T01:47:35;99081.56;;;14.14;48.82
77526;BME280;66627;29.424;-98.496;2023-04-24T01:50:00;99081.44;;;13.41;49.32
77526;BME280;66627;29.424;-98.496;2023-04-24T01:52:25;99083.41;;;13.24;49.83
77526;BME280;66627;29.424;-98.496;2023-04-24T01:54:52;99092.58;;;13.57;50.16
77526;BME280;66627;29.424;-98.496;2023-04-24T01:57:17;99090.75;;;14.28;49.33
77526;BME280;66627;29.424;-98.496;2023-04-24T01:59:46;99097.87;;;14.36;50.33
77526;BME280;66627;29.424;-98.496;2023-04-24T02:02:08;99101.32;;;14.41;49.57
77526;BME280;66627;29.424;-98.496;2023-04-24T02:04:33;99107.03;;;14.31;48.40
77526;BME280;66627;29.424;-98.496;2023-04-24T02:06:58;99108.08;;;13.23;50.18
77526;BME280;66627;29.424;-98.496;2023-04-24T02:09:24;99108.78;;;13.02;50.66
77526;BME280;66627;29.424;-98.496;2023-04-24T02:11:50;99104.59;;;12.76;50.73
77526;BME280;66627;29.424;-98.496;2023-04-24T02:14:14;99107.39;;;13.03;50.94
77526;BME280;66627;29.424;-98.496;2023-04-24T02:16:40;99109.42;;;13.40;50.63
77526;BME280;66627;29.424;-98.496;2023-04-24T02:19:05;99107.63;;;13.73;50.90
77526;BME280;66627;29.424;-98.496;2023-04-24T02:21:31;99115.11;;;14.03;49.76
77526;BME280;66627;29.424;-98.496;2023-04-24T02:23:57;99123.28;;;12.96;50.63
77526;BME280;66627;29.424;-98.496;2023-04-24T02:26:22;99130.08;;;13.38;49.79
77526;BME280;66627;29.424;-98.496;2023-04-24T02:28:48;99132.04;;;13.73;50.71
77526;BME280;66627;29.424;-98.496;2023-04-24T02:31:13;99132.18;;;12.88;51.56
77526;BME280;66627;29.424;-98.496;2023-04-24T02:33:38;99138.85;;;13.74;50.30
77526;BME280;66627;29.424;-98.496;2023-04-24T02:36:04;99140.90;;;13.32;50.02
77526;BME280;66627;29.424;-98.496;2023-04-24T02:38:29;99142.30;;;13.69;49.43
77526;BME280;66627;29.424;-98.496;2023-04-24T02:40:54;99139.03;;;14.37;49.66
77526;BME280;66627;29.424;-98.496;2023-04-24T02:43:20;99141.36;;;13.58;48.99
77526;BME280;66627;29.424;-98.496;2023-04-24T02:45:46;99146.51;;;14.12;50.24
77526;BME280;66627;29.424;-98.496;2023-04-24T02:48:11;99150.07;;;13.21;49.18
77526;BME280;66627;29.424;-98.496;2023-04-24T02:50:36;99149.57;;;13.63;49.33
77526;BME280;66627;29.424;-98.496;2023-04-24T02:53:02;99156.29;;;13.86;48.99
77526;BME280;66627;29.424;-98.496;2023-04-24T02:55:27;99153.45;;;12.99;50.19
77526;BME280;66627;29.424;-98.496;2023-04-24T02:57:53;99160.13;;;12.99;50.48
77526;BME280;66627;29.424;-98.496;2023-04-24T03:00:19;99164.54;;;13.70;49.77
77526;BME280;66627;29.424;-98.496;2023-04-24T03:02:44;99172.50;;;14.12;48.83
77526;BME280;66627;29.424;-98.496;2023-04-24T03:05:09;99168.43;;;14.42;48.79
77526;BME280;66627;29.424;-98.496;2023-04-24T03:07:35;99167.69;;;14.29;49.16
77526;BME280;66627;29.424;-98.496;2023-04-24T03:10:00;99173.26;;;13.28;50.03
77526;BME280;66627;29.424;-98.496;2023-04-24T03:12:25;99183.10;;;13.92;49.90
77526;BME280;66627;29.424;-98.496;2023-04-24T03:14:50;99187.11;;;13.97;49.34
77526;BME280;66627;29.424;-98.496;2023-04-24T03:17:16;99191.77;;;14.28;48.36
77526;BME280;66627;29.424;-98.496;2023-04-24T03:19:41;99191.56;;;14.42;47.47
77526;BME280;66627;29.424;-98.496;2023-04-24T03:22:07;99193.70;;;14.32;48.23
77526;BME280;66627;29.424;-98.496;2023-04-24T03:24:33;99200.67;;;14.30;49.21
77526;BME280;66627;29.424;-98.496;2023-04-24T03:26:59;99204.66;;;14.59;48.03
77526;BME280;66627;29.424;-98.496;2023-04-24T03:29:24;99203.59;;;15.05;48.08
77526;BME280;66627;29.424;-98.496;2023-04-24T03:31:50;99206.77;;;14.65;48.01
77526;BME280;66627;29.424;-98.496;2023-04-24T03:34:15;99210.91;;;14.87;48.01
77526;BME280;66627;29.424;-98.496;2023-04-24T03:36:41;99210.77;;;15.03;47.40
77526;BME280;66627;29.424;-98.496;2023-04-24T03:39:07;99214.39;;;14.00;48.00
77526;BME280;66627;29.424;-98.496;2023-04-24T03:41:32;99220.17;;;14.59;48.33
77526;BME280;66627;29.424;-98.496;2023-04-24T03:43:58;99221.94;;;14.45;48.14
77526;BME280;66627;29.424;-98.496;2023-04-24T03:46:24;99220.45;;;15.17;47.21
77526;BME280;66627;29.424;-98.496;2023-04-24T03:48:49;99216.35;;;15.08;47.42
77526;BME280;66627;29.424;-98.496;2023-04-24T03:51:14;99214.72;;;15.06;46.67
77526;BME280;66627;29.424;-98.496;2023-04-24T03:53:40;99213.46;;;15.20;46.93
77526;BME280;66627;29.424;-98.496;2023-04-24T03:56:06;99216.15;;;14.05;47.36
77526;BME280;66627;29.424;-98.496;2023-04-24T03:58:32;99212.81;;;14.46;48.51
77526;BME280;66627;29.424;-98.496;2023-04-24T04:00:57;99217.34;;;14.15;49.33
77526;BME280;66627;29.424;-98.496;2023-04-24T04:03:23;99219.35;;;13.57;49.79
77526;BME280;66627;29.424;-98.496;2023-04-24T04:05:48;99226.52;;;14.21;48.03
77526;BME280;66627;29.424;-98.496;2023-04-24T04:08:14;99220.43;;;14.06;49.07
77526;BME280;66627;29.424;-98.496;2023-04-24T04:10:39;99222.71;;;14.70;48.40
77526;BME280;66627;29.424;-98.496;2023-04-24T04:13:05;99230.21;;;14.05;48.50
77526;BME280;66627;29.424;-98.496;2023-04-24T04:15:30;99235.22;;;14.22;48.35
77526;BME280;66627;29.424;-98.496;2023-04-24T04:17:56;99234.22;;;13.87;48.86
77526;BME280;66627;29.424;-98.496;2023-04-24T04:20:22;99233.95;;;14.50;49.04
77526;BME280;66627;29.424;-98.496;2023-04-24T04:22:47;99233.89;;;14.28;48.95
77526;BME280;66627;29.424;-98.496;2023-04-24T04:25:12;99232.91;;;14.64;48.35
77526;BME280;66627;29.424;-98.496;2023-04-24T04:27:38;99236.61;;;14.15;49.07
77526;BME280;66627;29.424;-98.496;2023-04-24T04:30:05;99238.55;;;14.68;48.66
77526;BME280;66627;29.424;-98.496;2023-04-24T04:32:29;99238.32;;;14.82;47.73
77526;BME280;66627;29.424;-98.496;2023-04-24T04:34:55;99235.07;;;14.28;49.24
77526;BME280;66627;29.424;-98.496;2023-04-24T04:37:22;99233.66;;;14.19;50.31
77526;BME280;66627;29.424;-98.496;2023-04-24T04:39:46;99228.66;;;13.67;49.34
77526;BME280;66627;29.424;-98.496;2023-04-24T04:42:16;99229.24;;;14.14;49.05
77526;BME280;66627;29.424;-98.496;2023-04-24T04:44:36;99227.33;;;14.62;48.81
77526;BME280;66627;29.424;-98.496;2023-04-24T04:47:03;99229.17;;;14.57;48.96
77526;BME280;66627;29.424;-98.496;2023-04-24T04:49:28;99231.52;;;14.58;49.42
77526;BME280;66627;29.424;-98.496;2023-04-24T04:51:53;99235.59;;;14.10;49.73
77526;BME280;66627;29.424;-98.496;2023-04-24T04:54:19;99238.77;;;14.08;49.76
77526;BME280;66627;29.424;-98.496;2023-04-24T04:56:44;99240.03;;;14.09;50.04
77526;BME280;66627;29.424;-98.496;2023-04-24T04:59:09;99245.65;;;14.28;49.54
77526;BME280;66627;29.424;-98.496;2023-04-24T05:01:35;99250.08;;;14.57;49.27
77526;BME280;66627;29.424;-98.496;2023-04-24T05:04:01;99250.68;;;14.88;49.91
77526;BME280;66627;29.424;-98.496;2023-04-24T05:06:26;99250.80;;;14.73;49.56
77526;BME280;66627;29.424;-98.496;2023-04-24T05:08:51;99247.22;;;14.26;49.66
77526;BME280;66627;29.424;-98.496;2023-04-24T05:11:16;99248.02;;;14.03;49.92
77526;BME280;66627;29.424;-98.496;2023-04-24T05:13:42;99246.84;;;13.73;51.11
77526;BME280;66627;29.424;-98.496;2023-04-24T05:16:07;99247.99;;;14.24;49.64
77526;BME280;66627;29.424;-98.496;2023-04-24T05:18:33;99249.53;;;14.83;49.44
77526;BME280;66627;29.424;-98.496;2023-04-24T05:20:59;99253.32;;;14.11;51.13
77526;BME280;66627;29.424;-98.496;2023-04-24T05:23:25;99254.19;;;14.16;50.36
77526;BME280;66627;29.424;-98.496;2023-04-24T05:25:50;99253.08;;;14.38;50.53
77526;BME280;66627;29.424;-98.496;2023-04-24T05:28:15;99249.16;;;13.90;49.20
77526;BME280;66627;29.424;-98.496;2023-04-24T05:30:41;99254.20;;;14.17;50.26
77526;BME280;66627;29.424;-98.496;2023-04-24T05:33:06;99262.76;;;14.39;50.27
77526;BME280;66627;29.424;-98.496;2023-04-24T05:35:32;99262.02;;;15.09;48.83
77526;BME280;66627;29.424;-98.496;2023-04-24T05:37:58;99265.58;;;14.54;49.63
77526;BME280;66627;29.424;-98.496;2023-04-24T05:40:23;99259.67;;;14.04;49.76
77526;BME280;66627;29.424;-98.496;2023-04-24T05:42:49;99258.60;;;14.53;49.48
77526;BME280;66627;29.424;-98.496;2023-04-24T05:45:15;99256.03;;;15.06;49.30
77526;BME280;66627;29.424;-98.496;2023-04-24T05:47:39;99256.18;;;15.11;48.94
77526;BME280;66627;29.424;-98.496;2023-04-24T05:50:05;99260.76;;;15.57;48.87
77526;BME280;66627;29.424;-98.496;2023-04-24T05:52:30;99265.89;;;15.23;48.77
77526;BME280;66627;29.424;-98.496;2023-04-24T05:54:56;99269.82;;;15.23;48.08
77526;BME280;66627;29.424;-98.496;2023-04-24T05:57:22;99269.20;;;15.02;47.64
77526;BME280;66627;29.424;-98.496;2023-04-24T05:59:48;99273.63;;;15.17;47.63
77526;BME280;66627;29.424;-98.496;2023-04-24T06:02:13;99269.08;;;14.89;47.89
77526;BME280;66627;29.424;-98.496;2023-04-24T06:04:38;99266.33;;;14.93;48.49
77526;BME280;66627;29.424;-98.496;2023-04-24T06:07:05;99258.83;;;14.28;48.81
77526;BME280;66627;29.424;-98.496;2023-04-24T06:09:29;99252.92;;;14.86;49.00
77526;BME280;66627;29.424;-98.496;2023-04-24T06:11:55;99252.00;;;13.67;50.76
77526;BME280;66627;29.424;-98.496;2023-04-24T06:14:21;99248.91;;;14.76;49.02
77526;BME280;66627;29.424;-98.496;2023-04-24T06:16:45;99247.38;;;15.25;49.19
77526;BME280;66627;29.424;-98.496;2023-04-24T06:19:11;99242.49;;;15.25;49.03
77526;BME280;66627;29.424;-98.496;2023-04-24T06:21:37;99245.29;;;15.32;48.57
77526;BME280;66627;29.424;-98.496;2023-04-24T06:24:02;99241.49;;;15.09;49.54
77526;BME280;66627;29.424;-98.496;2023-04-24T06:26:27;99248.14;;;14.11;49.73
77526;BME280;66627;29.424;-98.496;2023-04-24T06:28:52;99249.11;;;14.16;49.61
77526;BME280;66627;29.424;-98.496;2023-04-24T06:31:17;99246.40;;;14.82;49.93
77526;BME280;66627;29.424;-98.496;2023-04-24T06:33:43;99244.14;;;14.80;49.77
77526;BME280;66627;29.424;-98.496;2023-04-24T06:36:08;99246.89;;;13.61;50.91
77526;BME280;66627;29.424;-98.496;2023-04-24T06:38:34;99246.45;;;13.48;51.93
77526;BME280;66627;29.424;-98.496;2023-04-24T06:41:00;99244.70;;;13.96;51.99
77526;BME280;66627;29.424;-98.496;2023-04-24T06:43:25;99244.11;;;14.14;51.23
77526;BME280;66627;29.424;-98.496;2023-04-24T06:45:50;99246.86;;;14.06;51.16
77526;BME280;66627;29.424;-98.496;2023-04-24T06:48:16;99244.84;;;13.61;51.54
77526;BME280;66627;29.424;-98.496;2023-04-24T06:50:41;99238.82;;;14.41;51.48
77526;BME280;66627;29.424;-98.496;2023-04-24T06:53:07;99235.81;;;13.90;52.18
77526;BME280;66627;29.424;-98.496;2023-04-24T06:55:32;99238.13;;;14.61;51.07
77526;BME280;66627;29.424;-98.496;2023-04-24T06:57:57;99233.90;;;14.26;51.62
77526;BME280;66627;29.424;-98.496;2023-04-24T07:00:22;99231.60;;;13.92;51.90
77526;BME280;66627;29.424;-98.496;2023-04-24T07:02:47;99228.36;;;14.14;52.15
77526;BME280;66627;29.424;-98.496;2023-04-24T07:05:13;99223.81;;;14.07;52.43
77526;BME280;66627;29.424;-98.496;2023-04-24T07:07:39;99217.45;;;14.27;51.99
77526;BME280;66627;29.424;-98.496;2023-04-24T07:10:05;99206.77;;;13.93;53.06
77526;BME280;66627;29.424;-98.496;2023-04-24T07:12:29;99201.39;;;14.36;53.05
77526;BME280;66627;29.424;-98.496;2023-04-24T07:14:54;99192.66;;;13.56;53.63
77526;BME280;66627;29.424;-98.496;2023-04-24T07:17:20;99192.55;;;13.73;53.93
77526;BME280;66627;29.424;-98.496;2023-04-24T07:19:45;99190.13;;;13.83;53.35
77526;BME280;66627;29.424;-98.496;2023-04-24T07:22:11;99186.26;;;13.41;54.62
77526;BME280;66627;29.424;-98.496;2023-04-24T07:24:37;99194.43;;;13.64;53.60
77526;BME280;66627;29.424;-98.496;2023-04-24T07:27:04;99192.25;;;13.75;54.05
77526;BME280;66627;29.424;-98.496;2023-04-24T07:29:27;99184.33;;;13.83;53.89
77526;BME280;66627;29.424;-98.496;2023-04-24T07:31:53;99178.17;;;13.89;54.10
77526;BME280;66627;29.424;-98.496;2023-04-24T07:34:19;99177.52;;;13.94;54.03
77526;BME280;66627;29.424;-98.496;2023-04-24T07:36:44;99185.62;;;13.36;55.11
77526;BME280;66627;29.424;-98.496;2023-04-24T07:39:09;99187.34;;;13.36;54.65
77526;BME280;66627;29.424;-98.496;2023-04-24T07:41:36;99191.05;;;13.81;53.24
77526;BME280;66627;29.424;-98.496;2023-04-24T07:44:01;99188.85;;;14.53;53.06
77526;BME280;66627;29.424;-98.496;2023-04-24T07:46:26;99191.31;;;14.15;53.63
77526;BME280;66627;29.424;-98.496;2023-04-24T07:48:52;99188.41;;;13.65;54.30
77526;BME280;66627;29.424;-98.496;2023-04-24T07:51:18;99195.74;;;14.24;53.39
77526;BME280;66627;29.424;-98.496;2023-04-24T07:53:44;99200.49;;;14.14;53.38
77526;BME280;66627;29.424;-98.496;2023-04-24T07:56:09;99202.53;;;14.80;52.20
77526;BME280;66627;29.424;-98.496;2023-04-24T07:58:35;99205.73;;;14.46;52.89
77526;BME280;66627;29.424;-98.496;2023-04-24T08:01:00;99202.87;;;14.51;51.82
77526;BME280;66627;29.424;-98.496;2023-04-24T08:03:26;99196.46;;;13.90;52.98
77526;BME280;66627;29.424;-98.496;2023-04-24T08:05:51;99199.72;;;13.76;53.55
77526;BME280;66627;29.424;-98.496;2023-04-24T08:08:17;99200.72;;;14.43;52.28
77526;BME280;66627;29.424;-98.496;2023-04-24T08:10:42;99199.89;;;14.01;52.89
77526;BME280;66627;29.424;-98.496;2023-04-24T08:13:08;99197.70;;;14.05;52.77
77526;BME280;66627;29.424;-98.496;2023-04-24T08:15:33;99198.22;;;14.25;53.17
77526;BME280;66627;29.424;-98.496;2023-04-24T08:17:59;99192.21;;;13.86;52.86
77526;BME280;66627;29.424;-98.496;2023-04-24T08:20:24;99185.17;;;14.48;52.75
77526;BME280;66627;29.424;-98.496;2023-04-24T08:22:49;99184.19;;;14.02;53.37
77526;BME280;66627;29.424;-98.496;2023-04-24T08:25:15;99175.65;;;14.55;53.13
77526;BME280;66627;29.424;-98.496;2023-04-24T08:27:40;99172.20;;;14.63;52.62
77526;BME280;66627;29.424;-98.496;2023-04-24T08:30:06;99168.69;;;13.86;54.06
77526;BME280;66627;29.424;-98.496;2023-04-24T08:32:30;99170.20;;;14.16;53.18
77526;BME280;66627;29.424;-98.496;2023-04-24T08:34:57;99169.34;;;14.81;52.51
77526;BME280;66627;29.424;-98.496;2023-04-24T08:37:22;99167.97;;;14.70;52.42
77526;BME280;66627;29.424;-98.496;2023-04-24T08:39:47;99166.49;;;15.02;52.43
77526;BME280;66627;29.424;-98.496;2023-04-24T08:42:14;99167.66;;;14.76;52.49
77526;BME280;66627;29.424;-98.496;2023-04-24T08:44:38;99167.21;;;14.59;52.29
77526;BME280;66627;29.424;-98.496;2023-04-24T08:47:04;99167.22;;;14.21;53.42
77526;BME280;66627;29.424;-98.496;2023-04-24T08:49:29;99172.51;;;13.95;53.63
77526;BME280;66627;29.424;-98.496;2023-04-24T08:51:55;99174.39;;;14.46;52.59
77526;BME280;66627;29.424;-98.496;2023-04-24T08:54:20;99174.11;;;13.42;54.07
77526;BME280;66627;29.424;-98.496;2023-04-24T08:56:45;99178.82;;;14.42;53.11
77526;BME280;66627;29.424;-98.496;2023-04-24T08:59:10;99183.12;;;14.49;53.23
77526;BME280;66627;29.424;-98.496;2023-04-24T09:01:38;99188.30;;;13.73;53.57
77526;BME280;66627;29.424;-98.496;2023-04-24T09:04:03;99196.36;;;13.81;53.47
77526;BME280;66627;29.424;-98.496;2023-04-24T09:06:26;99198.48;;;13.97;53.99
77526;BME280;66627;29.424;-98.496;2023-04-24T09:08:54;99202.53;;;13.30;54.91
77526;BME280;66627;29.424;-98.496;2023-04-24T09:11:18;99201.99;;;13.16;55.06
77526;BME280;66627;29.424;-98.496;2023-04-24T09:13:44;99206.71;;;12.94;55.18
77526;BME280;66627;29.424;-98.496;2023-04-24T09:16:08;99210.03;;;13.86;54.19
77526;BME280;66627;29.424;-98.496;2023-04-24T09:18:33;99212.22;;;14.02;53.57
77526;BME280;66627;29.424;-98.496;2023-04-24T09:21:00;99218.30;;;13.67;54.03
77526;BME280;66627;29.424;-98.496;2023-04-24T09:23:27;99224.79;;;13.96;53.69
77526;BME280;66627;29.424;-98.496;2023-04-24T09:25:55;99223.74;;;13.66;54.01
77526;BME280;66627;29.424;-98.496;2023-04-24T09:28:16;99223.51;;;13.78;52.88
77526;BME280;66627;29.424;-98.496;2023-04-24T09:30:41;99224.07;;;13.79;53.91
77526;BME280;66627;29.424;-98.496;2023-04-24T09:33:13;99226.36;;;13.58;54.21
77526;BME280;66627;29.424;-98.496;2023-04-24T09:35:32;99227.91;;;13.33;54.16
77526;BME280;66627;29.424;-98.496;2023-04-24T09:37:58;99224.36;;;13.56;54.20
77526;BME280;66627;29.424;-98.496;2023-04-24T09:40:24;99227.48;;;13.50;54.34
77526;BME280;66627;29.424;-98.496;2023-04-24T09:42:54;99229.02;;;13.74;54.38
77526;BME280;66627;29.424;-98.496;2023-04-24T09:45:15;99228.66;;;13.64;54.23
77526;BME280;66627;29.424;-98.496;2023-04-24T09:47:41;99231.42;;;13.62;53.58
77526;BME280;66627;29.424;-98.496;2023-04-24T09:50:13;99233.14;;;14.23;53.24
77526;BME280;66627;29.424;-98.496;2023-04-24T09:52:31;99238.18;;;14.16;53.42
77526;BME280;66627;29.424;-98.496;2023-04-24T09:54:57;99240.12;;;14.02;53.52
77526;BME280;66627;29.424;-98.496;2023-04-24T09:57:22;99239.75;;;13.98;53.04
77526;BME280;66627;29.424;-98.496;2023-04-24T09:59:47;99244.77;;;13.61;53.15
77526;BME280;66627;29.424;-98.496;2023-04-24T10:02:18;99240.05;;;13.10;54.31
77526;BME280;66627;29.424;-98.496;2023-04-24T10:04:38;99240.24;;;13.47;54.25
77526;BME280;66627;29.424;-98.496;2023-04-24T10:07:04;99238.81;;;13.79;53.58
77526;BME280;66627;29.424;-98.496;2023-04-24T10:09:29;99241.57;;;14.16;53.20
77526;BME280;66627;29.424;-98.496;2023-04-24T10:11:55;99237.93;;;13.27;53.18
77526;BME280;66627;29.424;-98.496;2023-04-24T10:14:22;99236.19;;;13.05;54.43
77526;BME280;66627;29.424;-98.496;2023-04-24T10:16:46;99243.34;;;13.40;54.13
77526;BME280;66627;29.424;-98.496;2023-04-24T10:19:11;99243.63;;;13.89;53.48
77526;BME280;66627;29.424;-98.496;2023-04-24T10:21:37;99243.75;;;14.00;52.67
77526;BME280;66627;29.424;-98.496;2023-04-24T10:24:02;99245.51;;;14.09;52.45
77526;BME280;66627;29.424;-98.496;2023-04-24T10:26:28;99245.53;;;14.00;52.78
77526;BME280;66627;29.424;-98.496;2023-04-24T10:28:55;99245.38;;;14.43;52.23
77526;BME280;66627;29.424;-98.496;2023-04-24T10:31:20;99247.89;;;14.75;51.92
77526;BME280;66627;29.424;-98.496;2023-04-24T10:33:46;99249.89;;;14.26;52.51
77526;BME280;66627;29.424;-98.496;2023-04-24T10:36:12;99249.65;;;13.82;52.52
77526;BME280;66627;29.424;-98.496;2023-04-24T10:38:36;99253.81;;;14.17;53.09
77526;BME280;66627;29.424;-98.496;2023-04-24T10:41:07;99255.00;;;14.95;51.73
77526;BME280;66627;29.424;-98.496;2023-04-24T10:43:26;99257.39;;;14.54;51.18
77526;BME280;66627;29.424;-98.496;2023-04-24T10:46:02;99260.31;;;15.10;50.89
77526;BME280;66627;29.424;-98.496;2023-04-24T10:48:17;99264.69;;;14.81;50.84
77526;BME280;66627;29.424;-98.496;2023-04-24T10:50:44;99269.20;;;15.29;50.91
77526;BME280;66627;29.424;-98.496;2023-04-24T10:53:15;99269.16;;;14.81;51.68
77526;BME280;66627;29.424;-98.496;2023-04-24T10:55:44;99270.48;;;15.07;50.60
77526;BME280;66627;29.424;-98.496;2023-04-24T10:58:03;99280.20;;;14.48;52.22
77526;BME280;66627;29.424;-98.496;2023-04-24T11:00:26;99287.00;;;14.45;52.49
77526;BME280;66627;29.424;-98.496;2023-04-24T11:02:49;99291.72;;;14.70;51.39
77526;BME280;66627;29.424;-98.496;2023-04-24T11:05:16;99292.23;;;14.42;51.72
77526;BME280;66627;29.424;-98.496;2023-04-24T11:10:07;99289.46;;;14.47;51.95
77526;BME280;66627;29.424;-98.496;2023-04-24T11:12:35;99290.40;;;14.78;52.39
77526;BME280;66627;29.424;-98.496;2023-04-24T11:15:01;99293.60;;;14.56;52.91
77526;BME280;66627;29.424;-98.496;2023-04-24T11:17:31;99293.97;;;15.21;52.10
77526;BME280;66627;29.424;-98.496;2023-04-24T11:19:51;99294.49;;;15.06;52.76
77526;BME280;66627;29.424;-98.496;2023-04-24T11:22:15;99293.76;;;14.42;53.40
77526;BME280;66627;29.424;-98.496;2023-04-24T11:24:48;99293.98;;;14.65;53.44
77526;BME280;66627;29.424;-98.496;2023-04-24T11:27:12;99296.15;;;14.70;53.26
77526;BME280;66627;29.424;-98.496;2023-04-24T11:29:40;99297.90;;;14.25;53.66
77526;BME280;66627;29.424;-98.496;2023-04-24T11:31:56;99299.38;;;15.00;52.78
77526;BME280;66627;29.424;-98.496;2023-04-24T11:34:22;99296.72;;;15.01;53.04
77526;BME280;66627;29.424;-98.496;2023-04-24T11:36:47;99296.62;;;14.93;53.61
77526;BME280;66627;29.424;-98.496;2023-04-24T11:39:12;99295.50;;;14.80;53.78
77526;BME280;66627;29.424;-98.496;2023-04-24T11:41:38;99291.41;;;14.94;53.45
77526;BME280;66627;29.424;-98.496;2023-04-24T11:44:07;99296.42;;;14.45;53.19
77526;BME280;66627;29.424;-98.496;2023-04-24T11:46:31;99295.41;;;14.72;53.85
77526;BME280;66627;29.424;-98.496;2023-04-24T11:48:55;99292.19;;;15.01;53.58
77526;BME280;66627;29.424;-98.496;2023-04-24T11:51:20;99296.81;;;14.26;54.36
77526;BME280;66627;29.424;-98.496;2023-04-24T11:53:46;99296.11;;;14.07;54.08
77526;BME280;66627;29.424;-98.496;2023-04-24T11:56:12;99294.16;;;14.93;53.84
77526;BME280;66627;29.424;-98.496;2023-04-24T11:58:38;99288.32;;;14.28;54.36
77526;BME280;66627;29.424;-98.496;2023-04-24T12:01:03;99287.28;;;14.55;52.95
77526;BME280;66627;29.424;-98.496;2023-04-24T12:03:28;99287.13;;;14.57;53.45
77526;BME280;66627;29.424;-98.496;2023-04-24T12:08:27;99283.60;;;14.76;53.83
77526;BME280;66627;29.424;-98.496;2023-04-24T12:10:45;99284.64;;;14.52;53.93
77526;BME280;66627;29.424;-98.496;2023-04-24T12:13:10;99284.99;;;14.66;52.99
77526;BME280;66627;29.424;-98.496;2023-04-24T12:15:40;99289.44;;;14.34;54.12
77526;BME280;66627;29.424;-98.496;2023-04-24T12:18:03;99295.96;;;14.68;53.74
77526;BME280;66627;29.424;-98.496;2023-04-24T12:20:29;99300.39;;;14.62;53.68
77526;BME280;66627;29.424;-98.496;2023-04-24T12:22:53;99304.19;;;13.84;53.90
77526;BME280;66627;29.424;-98.496;2023-04-24T12:25:19;99310.38;;;14.36;53.85
77526;BME280;66627;29.424;-98.496;2023-04-24T12:27:44;99317.07;;;14.88;53.41
77526;BME280;66627;29.424;-98.496;2023-04-24T12:30:13;99321.06;;;14.87;53.81
77526;BME280;66627;29.424;-98.496;2023-04-24T12:32:33;99323.87;;;13.08;54.20
77526;BME280;66627;29.424;-98.496;2023-04-24T12:34:59;99325.62;;;14.02;53.95